Time;durP1;ratioP1;P1;durP2;ratioP2;P2;SDS_P1;SDS_P2;PMS_P1;PMS_P2;Temp;Humidity;BMP_temperature;BMP_pressure;BME280_temperature;BME280_humidity;BME280_pressure;Samples;Min_cycle;Max_cycle;Signal;HPM_P1;HPM_P2
2023/06/08 00:02:17;;;;;;;10.85;7.45;;;;;;;16.10;70.07;101616.47;5020244;28;20041;-73
2023/06/08 00:04:46;;;;;;;16.05;8.23;;;;;;;16.10;70.20;101606.59;5021142;28;20120;-74
2023/06/08 00:07:16;;;;;;;13.40;8.18;;;;;;;16.01;71.17;101608.97;5025302;28;20368;-72
2023/06/08 00:09:41;;;;;;;10.02;7.78;;;;;;;16.03;71.30;101612.44;5016453;28;20025;-73
2023/06/08 00:12:08;;;;;;;11.10;7.93;;;;;;;15.99;71.80;101624.31;5026976;28;20029;-72
2023/06/08 00:14:36;;;;;;;11.48;7.75;;;;;;;15.89;72.23;101624.88;5021831;28;20313;-71
2023/06/08 00:17:02;;;;;;;13.48;8.40;;;;;;;15.88;72.92;101623.16;5015327;28;20032;-70
2023/06/08 00:19:28;;;;;;;13.77;7.95;;;;;;;15.82;73.09;101615.47;5024114;28;20176;-72
2023/06/08 00:21:56;;;;;;;13.88;8.38;;;;;;;15.74;73.59;101617.75;5024532;28;20040;-70
2023/06/08 00:24:22;;;;;;;10.30;8.38;;;;;;;15.68;74.06;101610.09;5024455;28;20053;-72
2023/06/08 00:26:48;;;;;;;13.10;8.88;;;;;;;15.71;74.12;101615.25;5024126;28;20043;-72
2023/06/08 00:29:13;;;;;;;11.63;7.90;;;;;;;15.64;74.12;101616.56;5021272;28;20053;-71
2023/06/08 00:31:39;;;;;;;15.52;8.80;;;;;;;15.64;74.47;101608.50;5021265;28;20022;-71
2023/06/08 00:34:04;;;;;;;13.55;9.55;;;;;;;15.51;75.20;101604.78;5006014;28;20488;-70
2023/06/08 00:36:30;;;;;;;13.48;8.57;;;;;;;15.54;75.41;101610.00;5027989;28;20036;-71
2023/06/08 00:38:55;;;;;;;15.10;9.43;;;;;;;15.51;75.56;101602.13;5022654;28;20036;-73
2023/06/08 00:41:20;;;;;;;14.88;9.30;;;;;;;15.46;75.76;101602.38;5021261;28;20558;-72
2023/06/08 00:43:46;;;;;;;14.93;9.48;;;;;;;15.32;76.52;101597.00;5020304;28;20059;-72
2023/06/08 00:46:16;;;;;;;12.88;8.82;;;;;;;15.20;76.78;101599.44;5021604;28;20551;-73
2023/06/08 00:48:42;;;;;;;15.30;9.55;;;;;;;15.34;76.50;101601.31;5022776;28;20098;-72
2023/06/08 00:51:08;;;;;;;15.45;9.43;;;;;;;15.35;76.62;101602.19;5021063;28;20033;-73
2023/06/08 00:53:36;;;;;;;13.68;9.70;;;;;;;15.31;76.72;101595.28;5022440;28;20078;-73
2023/06/08 00:56:02;;;;;;;12.55;9.27;;;;;;;15.25;76.85;101593.78;5020683;28;20032;-72
2023/06/08 00:58:28;;;;;;;11.40;8.88;;;;;;;15.31;76.58;101590.78;5020233;28;20467;-72
2023/06/08 01:01:04;;;;;;;12.15;8.85;;;;;;;15.22;77.17;101582.41;5019591;28;20040;-72
2023/06/08 01:03:35;;;;;;;18.08;9.40;;;;;;;15.25;76.80;101601.84;5021401;28;20060;-72
2023/06/08 01:06:08;;;;;;;12.73;9.10;;;;;;;15.26;76.77;101587.50;5022511;28;20091;-72
2023/06/08 01:08:52;;;;;;;17.63;9.50;;;;;;;15.28;76.32;101590.06;5011890;28;20059;-71
2023/06/08 01:11:48;;;;;;;13.98;9.55;;;;;;;15.29;76.18;101594.47;5014886;28;20084;-73
2023/06/08 01:14:35;;;;;;;13.68;9.73;;;;;;;15.19;76.76;101591.47;4980885;28;20091;-72
2023/06/08 01:17:03;;;;;;;14.82;9.68;;;;;;;15.15;77.56;101590.78;5019580;28;20041;-73
2023/06/08 01:20:09;;;;;;;15.70;9.52;;;;;;;15.10;76.83;101587.53;5012249;28;20025;-72
2023/06/08 01:23:20;;;;;;;14.75;9.95;;;;;;;15.07;77.02;101586.81;4921068;29;20318;-71
2023/06/08 01:25:47;;;;;;;13.52;9.25;;;;;;;14.91;78.68;101584.16;4920966;29;20135;-73
2023/06/08 01:28:13;;;;;;;12.88;9.02;;;;;;;14.83;78.91;101579.22;4922058;29;20142;-72
2023/06/08 01:30:51;;;;;;;15.52;8.95;;;;;;;14.86;78.67;101573.72;4922607;29;20431;-73
2023/06/08 01:33:19;;;;;;;14.52;9.10;;;;;;;14.91;78.85;101571.63;4920294;29;20052;-72
2023/06/08 01:36:03;;;;;;;12.65;8.80;;;;;;;14.84;79.11;101575.63;4921497;29;20062;-71
2023/06/08 01:38:34;;;;;;;;;;;;;;;14.93;76.86;101576.91;4921574;29;20103;-72
2023/06/08 01:41:11;;;;;;;14.43;9.88;;;;;;;14.69;79.47;101579.16;4922770;29;19911;-72
2023/06/08 01:43:39;;;;;;;13.65;9.73;;;;;;;14.59;80.61;101577.94;4922776;29;20042;-72
2023/06/08 01:46:09;;;;;;;16.17;10.25;;;;;;;14.58;80.91;101576.22;4922423;29;20039;-72
2023/06/08 01:48:40;;;;;;;15.05;10.43;;;;;;;14.59;80.62;101569.91;4922746;29;20067;-71
2023/06/08 01:51:08;;;;;;;15.13;9.75;;;;;;;14.62;80.68;101573.28;4923092;29;20545;-70
2023/06/08 01:53:34;;;;;;;17.10;9.82;;;;;;;14.52;81.19;101571.22;4920763;29;20039;-72
2023/06/08 01:55:59;;;;;;;16.25;9.98;;;;;;;14.59;80.97;101569.91;4921274;29;20031;-71
2023/06/08 01:58:25;;;;;;;14.43;10.07;;;;;;;14.56;81.02;101567.41;4932374;28;20031;-71
2023/06/08 02:00:51;;;;;;;18.70;10.88;;;;;;;14.45;81.27;101563.47;5021614;28;20033;-72
2023/06/08 02:03:16;;;;;;;15.27;10.25;;;;;;;14.42;81.65;101565.44;5003182;28;20597;-72
2023/06/08 02:05:41;;;;;;;15.30;10.27;;;;;;;14.33;82.32;101569.50;5021488;28;20028;-72
2023/06/08 02:08:07;;;;;;;16.77;10.57;;;;;;;14.31;82.57;101566.06;5021865;28;20022;-72
2023/06/08 02:10:32;;;;;;;15.20;10.05;;;;;;;14.21;83.20;101564.81;5025145;28;20025;-72
2023/06/08 02:12:57;;;;;;;15.30;10.27;;;;;;;14.16;83.37;101561.53;5015546;28;20468;-71
2023/06/08 02:15:23;;;;;;;13.93;10.30;;;;;;;14.13;83.33;101564.41;5026636;28;20030;-71
2023/06/08 02:17:48;;;;;;;16.33;9.70;;;;;;;14.14;83.41;101564.31;5017160;28;20022;-71
2023/06/08 02:20:13;;;;;;;15.52;10.20;;;;;;;14.12;83.78;101566.19;5000430;28;20033;-71
2023/06/08 02:22:39;;;;;;;16.33;10.85;;;;;;;14.12;83.78;101566.19;5026276;28;20097;-72
2023/06/08 02:25:07;;;;;;;18.27;10.30;;;;;;;14.01;84.16;101565.06;5025438;28;20132;-71
2023/06/08 02:27:36;;;;;;;20.52;11.05;;;;;;;13.97;84.60;101566.16;5022534;28;20033;-71
2023/06/08 02:30:02;;;;;;;15.73;10.82;;;;;;;14.10;84.20;101573.44;5025607;28;20498;-72
2023/06/08 02:32:32;;;;;;;18.73;10.65;;;;;;;14.00;84.51;101566.84;5026062;28;20037;-71
2023/06/08 02:34:59;;;;;;;15.27;10.27;;;;;;;13.99;84.55;101573.16;5025836;28;20017;-71
2023/06/08 02:37:24;;;;;;;15.32;11.00;;;;;;;13.95;84.89;101569.75;5026364;28;20078;-70
2023/06/08 02:39:50;;;;;;;17.23;10.50;;;;;;;13.91;84.71;101572.69;5026219;28;20029;-70
2023/06/08 02:42:16;;;;;;;14.75;10.98;;;;;;;13.79;85.69;101568.84;5026342;28;20270;-70
2023/06/08 02:44:41;;;;;;;16.48;10.25;;;;;;;13.69;86.14;101568.47;5020827;28;20049;-70
2023/06/08 02:47:07;;;;;;;14.60;11.18;;;;;;;13.71;86.67;101568.41;5022778;28;20040;-71
2023/06/08 02:49:32;;;;;;;18.55;10.88;;;;;;;13.77;86.10;101570.75;5002410;28;20428;-71
2023/06/08 02:51:57;;;;;;;14.48;10.43;;;;;;;13.79;86.26;101568.84;5024889;28;20107;-71
2023/06/08 02:54:22;;;;;;;15.52;11.20;;;;;;;13.77;86.13;101562.72;5026268;28;20071;-71
2023/06/08 02:56:48;;;;;;;17.73;11.75;;;;;;;13.67;86.60;101567.72;5023771;28;20053;-71
2023/06/08 02:59:14;;;;;;;16.40;11.43;;;;;;;13.65;86.53;101560.69;5025247;28;20104;-71
2023/06/08 03:01:53;;;;;;;17.50;11.40;;;;;;;13.54;87.28;101558.56;5025659;28;20041;-73
2023/06/08 03:04:27;;;;;;;18.98;11.80;;;;;;;13.52;87.52;101563.16;5020370;28;20096;-73
2023/06/08 03:06:53;;;;;;;17.80;11.07;;;;;;;13.52;87.62;101568.50;5026034;28;20040;-71
2023/06/08 03:09:23;;;;;;;18.20;11.20;;;;;;;13.38;88.53;101560.31;5024604;28;20034;-72
2023/06/08 03:11:49;;;;;;;16.83;11.10;;;;;;;13.43;88.42;101563.63;5022184;28;20032;-72
2023/06/08 03:14:16;;;;;;;18.73;12.75;;;;;;;13.33;88.97;101560.53;5012928;28;20029;-71
2023/06/08 03:16:42;;;;;;;19.08;11.82;;;;;;;13.26;89.31;101558.28;5024562;28;20033;-72
2023/06/08 03:19:08;;;;;;;18.25;12.07;;;;;;;13.34;89.17;101566.78;5021033;28;20030;-70
2023/06/08 03:21:36;;;;;;;17.95;12.30;;;;;;;13.29;89.20;101560.78;5016935;28;20400;-73
2023/06/08 03:24:02;;;;;;;16.85;12.07;;;;;;;13.32;89.11;101558.81;5021710;28;20049;-70
2023/06/08 03:26:28;;;;;;;17.50;12.18;;;;;;;13.18;89.85;101567.50;5020299;28;20109;-73
2023/06/08 03:28:53;;;;;;;20.52;12.32;;;;;;;13.13;90.02;101563.34;5020235;28;20112;-72
2023/06/08 03:31:20;;;;;;;19.50;12.57;;;;;;;13.10;90.42;101555.47;5000388;28;20121;-72
2023/06/08 03:33:46;;;;;;;16.95;12.07;;;;;;;13.04;90.75;101563.78;5023875;28;20485;-73
2023/06/08 03:36:12;;;;;;;19.23;12.27;;;;;;;13.08;90.38;101565.34;5024150;28;20017;-73
2023/06/08 03:38:38;;;;;;;14.27;11.75;;;;;;;13.07;90.65;101564.50;5023317;28;20527;-72
2023/06/08 03:41:03;;;;;;;16.13;12.00;;;;;;;13.11;90.25;101566.06;5017419;28;20535;-72
2023/06/08 03:43:28;;;;;;;17.67;11.95;;;;;;;13.06;90.57;101567.25;5021011;28;20404;-72
2023/06/08 03:45:54;;;;;;;16.88;12.48;;;;;;;13.10;90.19;101564.34;5013496;28;20825;-72
2023/06/08 03:48:19;;;;;;;17.42;12.35;;;;;;;13.15;90.08;101556.97;5011394;28;20637;-71
2023/06/08 03:50:45;;;;;;;21.90;12.45;;;;;;;13.17;89.87;101551.56;5023628;28;20029;-71
2023/06/08 03:53:11;;;;;;;16.42;11.73;;;;;;;13.23;89.27;101553.94;5023656;28;20025;-72
2023/06/08 03:55:37;;;;;;;18.40;12.55;;;;;;;13.09;89.95;101556.41;5023393;28;20183;-71
2023/06/08 03:58:02;;;;;;;17.77;12.02;;;;;;;13.10;89.94;101553.66;5015477;28;20029;-72
2023/06/08 04:00:29;;;;;;;19.63;12.23;;;;;;;13.07;89.91;101558.28;5010305;28;20721;-72
2023/06/08 04:02:55;;;;;;;17.33;12.48;;;;;;;13.09;90.14;101559.09;5014829;28;20041;-71
2023/06/08 04:05:20;;;;;;;16.85;12.25;;;;;;;13.12;89.97;101564.25;5013188;28;20094;-72
2023/06/08 04:07:50;;;;;;;20.67;12.45;;;;;;;13.02;90.08;101557.66;5023258;28;20094;-71
2023/06/08 04:10:16;;;;;;;15.00;11.48;;;;;;;13.08;89.96;101552.00;5023212;28;20041;-71
2023/06/08 04:12:43;;;;;;;20.20;13.15;;;;;;;13.03;90.04;101546.03;5023192;28;20669;-73
2023/06/08 04:15:09;;;;;;;18.85;11.63;;;;;;;13.00;89.89;101549.72;5022630;28;20041;-71
2023/06/08 04:17:34;;;;;;;17.15;11.82;;;;;;;12.96;89.53;101540.13;4998464;28;20071;-71
2023/06/08 04:20:00;;;;;;;18.70;12.05;;;;;;;12.94;89.98;101556.22;5019966;28;20357;-72
2023/06/08 04:22:27;;;;;;;20.05;12.52;;;;;;;12.89;90.25;101555.59;5023519;28;20059;-71
2023/06/08 04:24:53;;;;;;;16.50;12.50;;;;;;;12.90;90.06;101551.97;4985051;28;1078614;-72
2023/06/08 04:27:19;;;;;;;19.25;12.20;;;;;;;12.96;90.13;101553.50;5022971;28;20065;-73
2023/06/08 04:29:44;;;;;;;18.77;12.52;;;;;;;12.93;89.93;101551.81;5024094;28;20036;-72
2023/06/08 04:32:10;;;;;;;17.05;12.45;;;;;;;12.90;90.15;101554.63;5022290;28;20021;-72
2023/06/08 04:34:35;;;;;;;21.05;12.85;;;;;;;12.98;89.83;101550.72;5024173;28;20418;-73
2023/06/08 04:37:01;;;;;;;18.95;13.10;;;;;;;12.97;89.40;101547.19;5018789;28;20036;-71
2023/06/08 04:39:31;;;;;;;19.38;12.82;;;;;;;13.03;89.25;101546.03;5014355;28;20029;-71
2023/06/08 04:41:58;;;;;;;18.25;12.98;;;;;;;12.94;89.43;101542.00;5023239;28;20116;-70
2023/06/08 04:44:24;;;;;;;18.95;12.43;;;;;;;13.03;89.44;101546.03;5013981;28;20031;-71
2023/06/08 04:46:49;;;;;;;18.92;12.63;;;;;;;13.07;89.20;101544.91;5018110;28;20403;-71
2023/06/08 04:49:16;;;;;;;18.92;12.57;;;;;;;13.08;88.90;101546.66;5017092;28;20029;-72
2023/06/08 04:51:46;;;;;;;16.90;12.95;;;;;;;13.15;88.64;101550.75;5021034;28;20029;-71
2023/06/08 04:54:15;;;;;;;19.23;13.00;;;;;;;13.20;88.27;101551.38;5012570;28;20036;-71
2023/06/08 04:56:41;;;;;;;18.65;13.35;;;;;;;13.32;88.51;101552.59;5023561;28;20030;-71
2023/06/08 04:59:08;;;;;;;21.27;12.95;;;;;;;13.34;87.55;101546.25;5021781;28;20322;-71
2023/06/08 05:01:33;;;;;;;18.35;12.15;;;;;;;13.35;87.36;101542.63;5021600;28;20033;-70
2023/06/08 05:03:59;;;;;;;18.40;12.98;;;;;;;13.35;87.01;101552.44;5024408;28;20037;-71
2023/06/08 05:06:24;;;;;;;18.15;12.73;;;;;;;13.38;86.83;101547.81;5020994;28;20113;-72
2023/06/08 05:08:49;;;;;;;19.55;13.00;;;;;;;13.42;86.65;101551.22;5023037;28;20388;-70
2023/06/08 05:11:15;;;;;;;18.60;13.30;;;;;;;13.45;86.68;101545.69;5022267;28;20561;-71
2023/06/08 05:13:40;;;;;;;21.13;13.77;;;;;;;13.54;86.33;101553.22;5024563;28;20030;-70
2023/06/08 05:16:05;;;;;;;22.17;13.98;;;;;;;13.63;85.98;101543.88;5020655;28;20068;-73
2023/06/08 05:18:31;;;;;;;16.65;12.48;;;;;;;13.72;85.66;101551.41;5004178;28;20075;-71
2023/06/08 05:20:56;;;;;;;17.88;13.70;;;;;;;13.65;85.47;101545.50;5000960;28;20029;-70
2023/06/08 05:23:21;;;;;;;20.65;13.73;;;;;;;13.71;84.90;101549.69;5020943;28;20458;-72
2023/06/08 05:25:47;;;;;;;20.52;13.88;;;;;;;13.68;85.19;101549.84;5021965;28;20428;-72
2023/06/08 05:28:12;;;;;;;19.35;14.15;;;;;;;13.71;85.56;101541.66;5022465;28;20025;-71
2023/06/08 05:30:38;;;;;;;23.75;14.35;;;;;;;13.87;85.20;101550.56;5022779;28;20025;-72
2023/06/08 05:33:03;;;;;;;22.48;13.75;;;;;;;13.95;84.62;101542.16;5022527;28;20021;-73
2023/06/08 05:35:29;;;;;;;20.88;13.43;;;;;;;14.09;83.80;101541.41;5021902;28;20025;-70
2023/06/08 05:37:55;;;;;;;19.85;13.43;;;;;;;14.26;82.96;101530.63;5020695;28;20071;-72
2023/06/08 05:40:20;;;;;;;16.83;13.43;;;;;;;14.25;82.95;101534.25;5021468;28;20326;-70
2023/06/08 05:42:46;;;;;;;20.33;14.45;;;;;;;14.31;82.99;101530.38;5022524;28;20033;-73
2023/06/08 05:45:11;;;;;;;19.90;15.23;;;;;;;14.41;82.63;101534.25;5019481;28;20036;-71
2023/06/08 05:47:38;;;;;;;21.70;14.32;;;;;;;14.48;81.67;101530.31;5018942;28;20053;-71
2023/06/08 05:50:03;;;;;;;19.25;14.73;;;;;;;14.55;81.86;101514.78;5020835;28;20076;-73
2023/06/08 05:52:30;;;;;;;18.98;14.45;;;;;;;14.62;81.26;101529.53;5020409;28;20033;-71
2023/06/08 05:54:55;;;;;;;20.73;14.85;;;;;;;14.81;81.34;101530.22;5018305;28;20116;-71
2023/06/08 05:57:21;;;;;;;19.13;14.60;;;;;;;14.89;80.93;101524.44;5021115;28;20139;-73
2023/06/08 05:59:46;;;;;;;21.58;14.85;;;;;;;14.97;80.40;101532.03;5021190;28;20032;-71
2023/06/08 06:02:12;;;;;;;20.02;15.63;;;;;;;15.02;79.39;101530.81;5015587;28;20109;-72
2023/06/08 06:04:38;;;;;;;20.50;14.90;;;;;;;14.97;79.86;101532.03;5022566;28;20021;-72
2023/06/08 06:07:06;;;;;;;23.33;15.25;;;;;;;15.20;79.71;101531.53;5021387;28;20025;-71
2023/06/08 06:09:32;;;;;;;18.13;14.77;;;;;;;15.32;78.98;101532.63;5020668;28;20034;-72
2023/06/08 06:11:57;;;;;;;22.50;15.43;;;;;;;15.59;77.60;101535.44;5000426;28;20083;-73
2023/06/08 06:14:23;;;;;;;25.92;14.98;;;;;;;15.72;76.82;101532.91;5015411;28;20112;-71
2023/06/08 06:16:48;;;;;;;21.55;15.73;;;;;;;15.83;76.05;101535.78;5021255;28;20044;-72
2023/06/08 06:19:13;;;;;;;21.10;15.98;;;;;;;15.97;75.49;101527.75;5019397;28;20082;-73
2023/06/08 06:21:39;;;;;;;20.58;14.85;;;;;;;16.12;75.21;101525.91;5004552;28;20049;-71
2023/06/08 06:24:04;;;;;;;18.83;14.68;;;;;;;16.22;74.16;101529.78;5021203;28;20111;-73
2023/06/08 06:26:30;;;;;;;21.27;15.02;;;;;;;16.47;73.75;101522.78;5016231;28;20111;-73
2023/06/08 06:28:55;;;;;;;23.75;15.60;;;;;;;16.56;73.05;101532.97;5022097;28;20119;-73
2023/06/08 06:31:20;;;;;;;20.33;14.77;;;;;;;16.69;73.30;101528.50;4999812;28;20033;-71
2023/06/08 06:33:46;;;;;;;19.05;14.48;;;;;;;16.95;72.22;101526.81;5017292;28;20059;-76
2023/06/08 06:36:11;;;;;;;21.23;14.85;;;;;;;17.01;71.90;101526.38;5015297;28;20040;-72
2023/06/08 06:38:37;;;;;;;20.50;13.98;;;;;;;17.17;71.01;101534.28;4999661;28;20133;-74
2023/06/08 06:41:03;;;;;;;19.10;14.45;;;;;;;17.17;70.95;101531.59;5012217;28;20033;-73
2023/06/08 06:43:32;;;;;;;19.73;14.15;;;;;;;17.43;70.11;101529.81;5019469;28;20059;-71
2023/06/08 06:45:57;;;;;;;18.88;14.52;;;;;;;17.58;69.21;101533.28;5022333;28;20065;-73
2023/06/08 06:48:23;;;;;;;16.55;13.77;;;;;;;17.66;69.06;101526.41;5019735;28;20060;-73
2023/06/08 06:50:49;;;;;;;18.85;13.90;;;;;;;17.68;68.60;101535.25;5017359;28;20348;-73
2023/06/08 06:53:15;;;;;;;18.65;14.18;;;;;;;17.98;67.96;101531.41;5021492;28;20033;-73
2023/06/08 06:55:41;;;;;;;21.38;14.05;;;;;;;18.21;67.28;101535.13;5026503;28;20063;-72
2023/06/08 06:58:06;;;;;;;20.75;13.45;;;;;;;18.37;66.54;101532.19;5024201;28;20108;-73
2023/06/08 07:00:37;;;;;;;21.17;14.25;;;;;;;18.59;66.09;101534.16;5024504;28;20499;-72
2023/06/08 07:03:07;;;;;;;17.27;13.50;;;;;;;18.52;65.18;101536.47;4991231;28;20095;-72
2023/06/08 07:05:36;;;;;;;17.00;13.45;;;;;;;18.75;64.94;101545.59;5021829;28;20043;-73
2023/06/08 07:08:02;;;;;;;18.00;14.15;;;;;;;18.94;64.64;101539.69;4999914;28;20657;-73
2023/06/08 07:10:28;;;;;;;18.90;14.00;;;;;;;19.16;65.49;101541.63;5022218;28;20025;-71
2023/06/08 07:12:53;;;;;;;18.85;13.60;;;;;;;19.13;63.53;101542.69;5016426;28;20345;-71
2023/06/08 07:15:19;;;;;;;20.38;12.80;;;;;;;19.27;63.31;101541.69;5023805;28;20655;-71
2023/06/08 07:17:46;;;;;;;19.50;12.88;;;;;;;19.26;63.27;101548.03;5016080;28;20029;-71
2023/06/08 07:20:12;;;;;;;18.88;13.27;;;;;;;19.47;62.99;101550.91;5002584;28;20025;-71
2023/06/08 07:22:37;;;;;;;18.52;13.48;;;;;;;19.38;61.73;101552.50;5015157;28;20035;-71
2023/06/08 07:25:04;;;;;;;23.10;14.15;;;;;;;19.82;62.07;101550.91;5021205;28;20425;-71
2023/06/08 07:27:32;;;;;;;18.60;13.77;;;;;;;20.06;61.46;101548.09;5013927;28;20040;-71
2023/06/08 07:29:58;;;;;;;18.73;13.57;;;;;;;20.27;60.40;101548.22;5001585;28;20029;-71
2023/06/08 07:32:24;;;;;;;19.92;13.02;;;;;;;20.45;59.42;101542.31;5018496;28;20044;-70
2023/06/08 07:34:50;;;;;;;19.95;13.07;;;;;;;20.80;59.30;101534.03;5022839;28;20502;-70
2023/06/08 07:37:15;;;;;;;22.33;13.43;;;;;;;21.08;58.18;101533.44;5022250;28;20052;-71
2023/06/08 07:39:41;;;;;;;19.05;13.32;;;;;;;21.57;56.82;101540.13;5022258;28;20040;-71
2023/06/08 07:42:06;;;;;;;15.93;13.43;;;;;;;21.84;54.82;101534.16;5022141;28;20029;-71
2023/06/08 07:44:32;;;;;;;19.67;13.38;;;;;;;21.74;54.17;101535.09;5018562;28;20073;-71
2023/06/08 07:46:57;;;;;;;18.58;13.15;;;;;;;22.01;53.99;101540.78;5023502;28;20029;-71
2023/06/08 07:49:23;;;;;;;19.88;13.65;;;;;;;22.30;53.36;101519.25;5019452;28;20041;-70
2023/06/08 07:51:50;;;;;;;18.35;13.55;;;;;;;22.23;52.28;101528.94;5016391;28;20029;-70
2023/06/08 07:54:19;;;;;;;19.30;13.25;;;;;;;22.69;51.76;101522.06;5018005;28;20109;-70
2023/06/08 07:56:48;;;;;;;16.85;12.85;;;;;;;23.05;50.70;101530.56;5014279;28;20050;-71
2023/06/08 07:59:13;;;;;;;19.58;13.85;;;;;;;23.25;49.74;101537.72;5008367;28;20040;-69
2023/06/08 08:01:39;;;;;;;17.55;13.65;;;;;;;23.51;48.99;101534.41;5012556;28;20026;-70
2023/06/08 08:04:04;;;;;;;20.02;13.18;;;;;;;23.91;48.15;101534.22;5021045;28;20459;-71
2023/06/08 08:06:33;;;;;;;17.15;13.10;;;;;;;24.62;47.13;101532.72;5017947;28;20047;-71
2023/06/08 08:08:58;;;;;;;16.98;12.85;;;;;;;25.14;45.54;101525.66;5024273;28;20104;-70
2023/06/08 08:11:23;;;;;;;16.92;12.88;;;;;;;25.46;44.67;101530.53;5013587;28;20113;-71
2023/06/08 08:13:49;;;;;;;19.92;14.52;;;;;;;25.91;44.10;101529.47;5020645;28;20064;-72
2023/06/08 08:16:15;;;;;;;18.45;13.75;;;;;;;26.35;43.31;101529.38;5020456;28;20067;-71
2023/06/08 08:18:40;;;;;;;18.77;13.40;;;;;;;26.55;41.91;101527.25;5020442;28;20036;-72
2023/06/08 08:21:05;;;;;;;20.80;12.23;;;;;;;27.07;40.36;101529.75;5000449;28;20116;-71
2023/06/08 08:23:31;;;;;;;17.08;13.38;;;;;;;27.10;40.01;101528.59;5021786;28;20061;-72
2023/06/08 08:25:56;;;;;;;17.55;12.90;;;;;;;26.81;40.22;101527.16;5019058;28;20037;-72
2023/06/08 08:28:22;;;;;;;14.82;12.27;;;;;;;27.25;39.93;101530.47;5020366;28;20033;-71
2023/06/08 08:30:47;;;;;;;15.68;12.63;;;;;;;27.66;39.12;101524.13;5015865;28;20033;-71
2023/06/08 08:33:13;;;;;;;15.13;13.20;;;;;;;28.05;38.66;101532.44;5009007;28;20060;-71
2023/06/08 08:35:38;;;;;;;18.27;13.10;;;;;;;28.19;38.23;101526.22;5023563;28;20036;-72
2023/06/08 08:38:03;;;;;;;18.20;13.73;;;;;;;28.39;37.50;101521.22;5019561;28;20086;-71
2023/06/08 08:40:29;;;;;;;16.95;13.30;;;;;;;28.89;36.59;101522.66;5019117;28;20029;-72
2023/06/08 08:43:25;;;;;;;17.33;12.88;;;;;;;28.59;37.33;101527.09;5017916;28;20087;-71
2023/06/08 08:45:51;;;;;;;20.05;12.85;;;;;;;28.97;36.19;101525.38;5015987;28;20234;-74
2023/06/08 08:48:21;;;;;;;17.08;13.70;;;;;;;28.48;36.46;101530.25;5021951;28;20368;-73
2023/06/08 08:50:57;;;;;;;17.77;12.60;;;;;;;28.34;36.96;101526.31;5023329;28;20028;-74
2023/06/08 08:53:27;;;;;;;15.30;12.50;;;;;;;28.77;36.86;101526.84;5019449;28;20146;-75
2023/06/08 08:55:55;;;;;;;18.35;13.63;;;;;;;28.88;35.82;101520.06;5002721;28;20116;-75
2023/06/08 08:58:21;;;;;;;18.52;13.18;;;;;;;29.52;35.49;101523.38;5020998;28;20675;-75
2023/06/08 09:00:50;;;;;;;15.60;12.88;;;;;;;29.57;34.95;101511.88;5021056;28;20029;-76
2023/06/08 09:03:16;;;;;;;13.15;10.70;;;;;;;29.28;36.41;101514.31;5022007;28;20030;-82
2023/06/08 09:05:43;;;;;;;14.23;11.73;;;;;;;28.96;36.34;101517.28;5024770;28;20079;-75
2023/06/08 09:08:09;;;;;;;12.80;11.02;;;;;;;28.85;36.24;101513.09;5017498;28;20033;-74
2023/06/08 09:10:35;;;;;;;17.50;12.98;;;;;;;28.94;36.33;101511.97;5019713;28;20088;-76
2023/06/08 09:13:03;;;;;;;18.75;12.52;;;;;;;28.88;36.30;101503.63;5021843;28;20025;-72
2023/06/08 09:15:34;;;;;;;16.23;11.35;;;;;;;29.41;35.79;101521.06;5020780;28;20044;-75
2023/06/08 09:18:17;;;;;;;16.00;10.90;;;;;;;30.31;36.13;101511.88;5019135;28;20053;-74
2023/06/08 09:20:43;;;;;;;16.80;11.13;;;;;;;30.61;34.09;101508.06;5014623;28;20033;-74
2023/06/08 09:23:17;;;;;;;13.63;10.52;;;;;;;30.91;33.84;101499.72;5020571;28;20124;-73
2023/06/08 09:25:42;;;;;;;15.40;10.80;;;;;;;31.17;33.00;101508.22;4988631;28;20030;-76
2023/06/08 09:28:18;;;;;;;14.52;11.48;;;;;;;31.07;34.23;101496.72;4976396;28;20052;-74
2023/06/08 09:30:45;;;;;;;10.90;9.50;;;;;;;31.07;33.32;101499.47;4979843;28;20032;-73
2023/06/08 09:33:20;;;;;;;74.45;13.32;;;;;;;31.00;36.38;101501.28;4978755;28;20695;-79
2023/06/08 09:35:46;;;;;;;10.13;8.98;;;;;;;30.37;38.49;101500.16;4973695;28;20044;-76
2023/06/08 09:38:18;;;;;;;13.25;8.85;;;;;;;30.58;41.92;101502.09;4977099;28;20026;-75
2023/06/08 09:40:45;;;;;;;17.08;9.48;;;;;;;30.79;37.38;101495.78;4977780;28;20220;-74
2023/06/08 09:43:11;;;;;;;12.25;9.57;;;;;;;30.94;34.98;101497.44;4978211;28;20034;-74
2023/06/08 09:45:44;;;;;;;11.80;9.02;;;;;;;31.61;34.78;101503.56;4966569;28;20535;-75
2023/06/08 09:48:11;;;;;;;10.75;9.18;;;;;;;31.48;31.94;101494.16;4977806;28;20114;-74
2023/06/08 09:50:36;;;;;;;10.80;9.70;;;;;;;31.42;32.95;101488.59;4971637;28;20041;-74
2023/06/08 09:53:05;;;;;;;13.65;8.85;;;;;;;31.90;33.15;101499.75;4975796;28;20030;-74
2023/06/08 09:55:34;;;;;;;9.88;8.60;;;;;;;32.08;32.00;101493.69;4981995;28;20531;-76
2023/06/08 09:58:03;;;;;;;9.50;8.48;;;;;;;32.64;31.29;101493.50;4982105;28;20088;-75
2023/06/08 10:00:30;;;;;;;9.00;8.10;;;;;;;32.84;30.45;101491.66;4973223;28;20113;-72
2023/06/08 10:03:14;;;;;;;9.32;8.43;;;;;;;32.82;30.70;101490.19;4976155;28;20187;-73
2023/06/08 10:05:43;;;;;;;9.88;8.55;;;;;;;32.45;30.04;101497.91;4975272;28;20058;-74
2023/06/08 10:08:12;;;;;;;9.93;7.82;;;;;;;32.77;29.76;101484.41;4970527;28;20030;-73
2023/06/08 10:10:38;;;;;;;9.00;7.65;;;;;;;32.97;29.54;101477.06;4976723;28;20072;-73
2023/06/08 10:13:05;;;;;;;8.23;7.43;;;;;;;33.29;28.86;101489.19;4981934;28;20266;-73
2023/06/08 10:15:33;;;;;;;9.85;7.35;;;;;;;33.32;28.75;101485.13;4980187;28;20023;-73
2023/06/08 10:17:59;;;;;;;8.65;7.72;;;;;;;33.18;29.35;101479.63;4969347;28;20039;-73
2023/06/08 10:20:25;;;;;;;9.10;7.50;;;;;;;33.93;28.88;101484.84;4977287;28;20543;-73
2023/06/08 10:22:52;;;;;;;18.88;7.97;;;;;;;34.32;28.60;101477.50;4978407;28;20026;-76
2023/06/08 10:25:19;;;;;;;9.07;7.60;;;;;;;34.35;27.93;101474.31;5016564;28;20064;-74
2023/06/08 10:27:49;;;;;;;7.25;6.47;;;;;;;34.89;27.38;101465.50;5012667;28;20161;-76
2023/06/08 10:30:40;;;;;;;9.75;6.35;;;;;;;35.27;27.39;101467.34;5020642;28;20035;-76
2023/06/08 10:33:15;;;;;;;8.85;7.20;;;;;;;35.79;26.60;101469.88;5021421;28;20272;-73
2023/06/08 10:35:41;;;;;;;8.73;6.57;;;;;;;35.77;26.08;101469.22;5019851;28;20028;-73
2023/06/08 10:38:15;;;;;;;8.60;6.60;;;;;;;35.83;25.25;101468.34;5024533;28;20113;-77
2023/06/08 10:40:44;;;;;;;13.13;7.32;;;;;;;35.90;26.16;101464.38;5022647;28;20025;-75
2023/06/08 10:43:09;;;;;;;9.18;8.05;;;;;;;35.65;25.54;101461.69;5021643;28;20037;-76
2023/06/08 10:45:37;;;;;;;7.55;6.30;;;;;;;35.46;26.52;101456.34;5002294;28;20026;-75
2023/06/08 10:48:07;;;;;;;8.63;7.18;;;;;;;34.99;26.01;101454.00;5019100;28;20026;-74
2023/06/08 10:50:37;;;;;;;8.35;6.43;;;;;;;35.26;26.16;101456.53;4997260;28;20059;-73
2023/06/08 10:53:03;;;;;;;7.80;6.15;;;;;;;35.47;26.17;101455.25;5007975;28;20391;-72
2023/06/08 10:55:29;;;;;;;8.10;5.72;;;;;;;35.17;25.80;101456.81;5020750;28;20094;-72
2023/06/08 10:58:06;;;;;;;6.90;5.50;;;;;;;35.08;27.06;101455.41;5020687;28;20022;-73
2023/06/08 11:00:32;;;;;;;7.70;6.03;;;;;;;34.74;25.98;101453.94;5001605;28;20025;-72
2023/06/08 11:03:05;;;;;;;7.60;5.93;;;;;;;35.09;27.30;101447.94;5022996;28;20543;-76
2023/06/08 11:05:39;;;;;;;7.93;6.47;;;;;;;35.24;26.30;101450.34;5018444;28;20052;-72
2023/06/08 11:08:07;;;;;;;9.88;7.10;;;;;;;35.71;25.32;101445.25;5020641;28;20176;-73
2023/06/08 11:10:33;;;;;;;7.93;6.88;;;;;;;35.70;25.17;101432.44;5017607;28;20259;-73
2023/06/08 11:13:12;;;;;;;8.27;7.35;;;;;;;35.80;25.17;101439.16;5019153;28;20099;-73
2023/06/08 11:15:42;;;;;;;9.57;6.93;;;;;;;35.88;24.72;101440.78;5022640;28;20032;-72